sensor_id;sensor_type;location;lat;lon;timestamp;P1;durP1;ratioP1;P2;durP2;ratioP2
55362;SDS011;41244;49.242;9.060;2024-01-11T00:02:23;36.00;;;19.92;;
55362;SDS011;41244;49.242;9.060;2024-01-11T00:04:49;36.97;;;20.60;;
55362;SDS011;41244;49.242;9.060;2024-01-11T00:07:15;36.67;;;19.70;;
55362;SDS011;41244;49.242;9.060;2024-01-11T00:09:41;34.70;;;20.45;;
55362;SDS011;41244;49.242;9.060;2024-01-11T00:12:07;33.42;;;19.98;;
55362;SDS011;41244;49.242;9.060;2024-01-11T00:14:34;35.05;;;19.73;;
55362;SDS011;41244;49.242;9.060;2024-01-11T00:17:00;34.05;;;19.33;;
55362;SDS011;41244;49.242;9.060;2024-01-11T00:19:26;33.65;;;20.23;;
55362;SDS011;41244;49.242;9.060;2024-01-11T00:21:52;39.10;;;20.00;;
55362;SDS011;41244;49.242;9.060;2024-01-11T00:24:18;39.40;;;20.38;;
55362;SDS011;41244;49.242;9.060;2024-01-11T00:26:43;34.92;;;20.92;;
55362;SDS011;41244;49.242;9.060;2024-01-11T00:29:09;34.40;;;19.52;;
55362;SDS011;41244;49.242;9.060;2024-01-11T00:31:35;34.88;;;20.83;;
55362;SDS011;41244;49.242;9.060;2024-01-11T00:34:02;34.83;;;20.80;;
55362;SDS011;41244;49.242;9.060;2024-01-11T00:36:28;38.95;;;20.23;;
55362;SDS011;41244;49.242;9.060;2024-01-11T00:38:54;35.97;;;20.55;;
55362;SDS011;41244;49.242;9.060;2024-01-11T00:41:20;36.97;;;20.73;;
55362;SDS011;41244;49.242;9.060;2024-01-11T00:43:45;37.80;;;20.70;;
55362;SDS011;41244;49.242;9.060;2024-01-11T00:46:11;36.30;;;21.33;;
55362;SDS011;41244;49.242;9.060;2024-01-11T00:48:37;36.95;;;20.70;;
55362;SDS011;41244;49.242;9.060;2024-01-11T00:51:06;35.05;;;20.40;;
55362;SDS011;41244;49.242;9.060;2024-01-11T00:53:32;35.55;;;20.63;;
55362;SDS011;41244;49.242;9.060;2024-01-11T00:55:58;36.78;;;21.83;;
55362;SDS011;41244;49.242;9.060;2024-01-11T00:58:25;37.38;;;21.52;;
55362;SDS011;41244;49.242;9.060;2024-01-11T01:00:50;37.20;;;21.73;;
55362;SDS011;41244;49.242;9.060;2024-01-11T01:03:18;40.78;;;21.95;;
55362;SDS011;41244;49.242;9.060;2024-01-11T01:05:46;41.25;;;21.85;;
55362;SDS011;41244;49.242;9.060;2024-01-11T01:08:12;38.22;;;22.00;;
55362;SDS011;41244;49.242;9.060;2024-01-11T01:10:39;41.30;;;21.88;;
55362;SDS011;41244;49.242;9.060;2024-01-11T01:13:05;36.78;;;20.83;;
55362;SDS011;41244;49.242;9.060;2024-01-11T01:15:30;36.38;;;20.38;;
55362;SDS011;41244;49.242;9.060;2024-01-11T01:17:56;38.47;;;21.00;;
55362;SDS011;41244;49.242;9.060;2024-01-11T01:20:22;33.10;;;21.30;;
55362;SDS011;41244;49.242;9.060;2024-01-11T01:22:49;34.45;;;20.27;;
55362;SDS011;41244;49.242;9.060;2024-01-11T01:25:15;33.53;;;20.70;;
55362;SDS011;41244;49.242;9.060;2024-01-11T01:27:41;43.78;;;22.30;;
55362;SDS011;41244;49.242;9.060;2024-01-11T01:30:06;41.00;;;22.05;;
55362;SDS011;41244;49.242;9.060;2024-01-11T01:32:33;41.15;;;21.60;;
55362;SDS011;41244;49.242;9.060;2024-01-11T01:34:59;38.78;;;21.67;;
55362;SDS011;41244;49.242;9.060;2024-01-11T01:37:25;37.08;;;21.75;;
55362;SDS011;41244;49.242;9.060;2024-01-11T01:39:51;32.92;;;21.23;;
55362;SDS011;41244;49.242;9.060;2024-01-11T01:42:17;39.00;;;22.17;;
55362;SDS011;41244;49.242;9.060;2024-01-11T01:44:42;33.97;;;21.40;;
55362;SDS011;41244;49.242;9.060;2024-01-11T01:47:08;36.60;;;21.08;;
55362;SDS011;41244;49.242;9.060;2024-01-11T01:49:35;37.38;;;21.17;;
55362;SDS011;41244;49.242;9.060;2024-01-11T01:52:03;36.83;;;20.85;;
55362;SDS011;41244;49.242;9.060;2024-01-11T01:54:29;38.63;;;21.67;;
55362;SDS011;41244;49.242;9.060;2024-01-11T01:56:57;40.17;;;21.30;;
55362;SDS011;41244;49.242;9.060;2024-01-11T01:59:22;37.28;;;20.40;;
55362;SDS011;41244;49.242;9.060;2024-01-11T02:01:49;34.35;;;20.40;;
55362;SDS011;41244;49.242;9.060;2024-01-11T02:04:15;37.72;;;21.33;;
55362;SDS011;41244;49.242;9.060;2024-01-11T02:06:41;38.38;;;22.00;;
55362;SDS011;41244;49.242;9.060;2024-01-11T02:09:10;40.33;;;23.15;;
55362;SDS011;41244;49.242;9.060;2024-01-11T02:11:36;39.30;;;22.20;;
55362;SDS011;41244;49.242;9.060;2024-01-11T02:14:02;35.28;;;22.15;;
55362;SDS011;41244;49.242;9.060;2024-01-11T02:16:28;37.13;;;21.45;;
55362;SDS011;41244;49.242;9.060;2024-01-11T02:18:54;37.80;;;20.60;;
55362;SDS011;41244;49.242;9.060;2024-01-11T02:21:20;40.58;;;21.05;;
55362;SDS011;41244;49.242;9.060;2024-01-11T02:24:05;36.25;;;20.95;;
55362;SDS011;41244;49.242;9.060;2024-01-11T02:26:32;35.80;;;19.95;;
55362;SDS011;41244;49.242;9.060;2024-01-11T02:28:58;36.15;;;22.13;;
55362;SDS011;41244;49.242;9.060;2024-01-11T02:31:24;37.08;;;21.02;;
55362;SDS011;41244;49.242;9.060;2024-01-11T02:33:53;35.63;;;20.52;;
55362;SDS011;41244;49.242;9.060;2024-01-11T02:36:22;37.20;;;20.98;;
55362;SDS011;41244;49.242;9.060;2024-01-11T02:38:48;37.33;;;21.63;;
55362;SDS011;41244;49.242;9.060;2024-01-11T02:41:15;38.03;;;20.75;;
55362;SDS011;41244;49.242;9.060;2024-01-11T02:43:46;39.28;;;22.85;;
55362;SDS011;41244;49.242;9.060;2024-01-11T02:46:13;40.75;;;20.27;;
55362;SDS011;41244;49.242;9.060;2024-01-11T02:48:42;37.47;;;21.67;;
55362;SDS011;41244;49.242;9.060;2024-01-11T02:51:08;36.88;;;22.88;;
55362;SDS011;41244;49.242;9.060;2024-01-11T02:53:34;38.90;;;20.70;;
55362;SDS011;41244;49.242;9.060;2024-01-11T02:56:00;38.35;;;22.27;;
55362;SDS011;41244;49.242;9.060;2024-01-11T02:58:26;36.78;;;21.83;;
55362;SDS011;41244;49.242;9.060;2024-01-11T03:00:52;41.10;;;21.48;;
55362;SDS011;41244;49.242;9.060;2024-01-11T03:03:18;41.88;;;22.50;;
55362;SDS011;41244;49.242;9.060;2024-01-11T03:05:44;38.00;;;21.52;;
55362;SDS011;41244;49.242;9.060;2024-01-11T03:08:09;38.35;;;22.00;;
55362;SDS011;41244;49.242;9.060;2024-01-11T03:10:38;38.72;;;23.23;;
55362;SDS011;41244;49.242;9.060;2024-01-11T03:13:05;37.30;;;21.15;;
55362;SDS011;41244;49.242;9.060;2024-01-11T03:15:32;39.50;;;22.38;;
55362;SDS011;41244;49.242;9.060;2024-01-11T03:17:58;40.90;;;21.48;;
55362;SDS011;41244;49.242;9.060;2024-01-11T03:20:23;39.72;;;21.60;;
55362;SDS011;41244;49.242;9.060;2024-01-11T03:22:52;36.38;;;21.23;;
55362;SDS011;41244;49.242;9.060;2024-01-11T03:25:18;40.25;;;21.33;;
55362;SDS011;41244;49.242;9.060;2024-01-11T03:27:44;39.00;;;22.35;;
55362;SDS011;41244;49.242;9.060;2024-01-11T03:30:11;36.20;;;20.50;;
55362;SDS011;41244;49.242;9.060;2024-01-11T03:32:37;35.47;;;20.42;;
55362;SDS011;41244;49.242;9.060;2024-01-11T03:35:04;39.97;;;21.67;;
55362;SDS011;41244;49.242;9.060;2024-01-11T03:37:32;39.03;;;20.75;;
55362;SDS011;41244;49.242;9.060;2024-01-11T03:39:58;34.30;;;20.88;;
55362;SDS011;41244;49.242;9.060;2024-01-11T03:42:25;36.90;;;21.15;;
55362;SDS011;41244;49.242;9.060;2024-01-11T03:44:51;38.90;;;21.20;;
55362;SDS011;41244;49.242;9.060;2024-01-11T03:47:16;37.67;;;21.52;;
55362;SDS011;41244;49.242;9.060;2024-01-11T03:49:42;41.30;;;22.85;;
55362;SDS011;41244;49.242;9.060;2024-01-11T03:52:08;41.22;;;22.58;;
55362;SDS011;41244;49.242;9.060;2024-01-11T03:54:33;39.17;;;22.23;;
55362;SDS011;41244;49.242;9.060;2024-01-11T03:56:59;36.97;;;21.50;;
55362;SDS011;41244;49.242;9.060;2024-01-11T03:59:25;38.83;;;22.83;;
55362;SDS011;41244;49.242;9.060;2024-01-11T04:01:51;37.88;;;21.13;;
55362;SDS011;41244;49.242;9.060;2024-01-11T04:04:17;36.08;;;21.50;;
55362;SDS011;41244;49.242;9.060;2024-01-11T04:06:43;40.58;;;22.25;;
55362;SDS011;41244;49.242;9.060;2024-01-11T04:09:10;40.80;;;23.83;;
55362;SDS011;41244;49.242;9.060;2024-01-11T04:11:35;39.90;;;23.38;;
55362;SDS011;41244;49.242;9.060;2024-01-11T04:14:01;38.35;;;21.60;;
55362;SDS011;41244;49.242;9.060;2024-01-11T04:16:28;37.35;;;21.98;;
55362;SDS011;41244;49.242;9.060;2024-01-11T04:18:54;40.58;;;22.30;;
55362;SDS011;41244;49.242;9.060;2024-01-11T04:21:23;41.78;;;22.17;;
55362;SDS011;41244;49.242;9.060;2024-01-11T04:23:50;36.97;;;22.15;;
55362;SDS011;41244;49.242;9.060;2024-01-11T04:26:16;37.65;;;22.48;;
55362;SDS011;41244;49.242;9.060;2024-01-11T04:28:44;40.78;;;21.27;;
55362;SDS011;41244;49.242;9.060;2024-01-11T04:31:11;38.80;;;22.70;;
55362;SDS011;41244;49.242;9.060;2024-01-11T04:33:39;38.75;;;21.65;;
55362;SDS011;41244;49.242;9.060;2024-01-11T04:36:07;41.15;;;22.30;;
55362;SDS011;41244;49.242;9.060;2024-01-11T04:38:33;42.83;;;22.70;;
55362;SDS011;41244;49.242;9.060;2024-01-11T04:40:59;43.15;;;23.60;;
55362;SDS011;41244;49.242;9.060;2024-01-11T04:43:25;40.80;;;24.15;;
55362;SDS011;41244;49.242;9.060;2024-01-11T04:45:51;45.05;;;25.13;;
55362;SDS011;41244;49.242;9.060;2024-01-11T04:48:18;47.47;;;25.10;;
55362;SDS011;41244;49.242;9.060;2024-01-11T04:50:44;45.13;;;24.83;;
55362;SDS011;41244;49.242;9.060;2024-01-11T04:53:10;43.10;;;25.17;;
55362;SDS011;41244;49.242;9.060;2024-01-11T04:55:36;45.58;;;24.83;;
55362;SDS011;41244;49.242;9.060;2024-01-11T04:58:02;43.78;;;24.73;;
55362;SDS011;41244;49.242;9.060;2024-01-11T05:00:28;45.83;;;25.35;;
55362;SDS011;41244;49.242;9.060;2024-01-11T05:02:54;44.10;;;25.23;;
55362;SDS011;41244;49.242;9.060;2024-01-11T05:05:20;45.95;;;25.23;;
55362;SDS011;41244;49.242;9.060;2024-01-11T05:07:46;43.67;;;25.15;;
55362;SDS011;41244;49.242;9.060;2024-01-11T05:10:12;44.88;;;24.73;;
55362;SDS011;41244;49.242;9.060;2024-01-11T05:12:37;44.85;;;24.92;;
55362;SDS011;41244;49.242;9.060;2024-01-11T05:15:04;44.38;;;24.10;;
55362;SDS011;41244;49.242;9.060;2024-01-11T05:17:33;43.33;;;25.85;;
55362;SDS011;41244;49.242;9.060;2024-01-11T05:19:58;43.30;;;26.45;;
55362;SDS011;41244;49.242;9.060;2024-01-11T05:22:24;48.60;;;24.95;;
55362;SDS011;41244;49.242;9.060;2024-01-11T05:24:50;46.15;;;26.48;;
55362;SDS011;41244;49.242;9.060;2024-01-11T05:27:16;45.60;;;26.50;;
55362;SDS011;41244;49.242;9.060;2024-01-11T05:29:41;54.42;;;29.70;;
55362;SDS011;41244;49.242;9.060;2024-01-11T05:32:07;86.07;;;44.40;;
55362;SDS011;41244;49.242;9.060;2024-01-11T05:34:33;58.50;;;32.33;;
55362;SDS011;41244;49.242;9.060;2024-01-11T05:36:58;63.75;;;33.67;;
55362;SDS011;41244;49.242;9.060;2024-01-11T05:39:24;64.97;;;34.25;;
55362;SDS011;41244;49.242;9.060;2024-01-11T05:41:50;43.55;;;24.38;;
55362;SDS011;41244;49.242;9.060;2024-01-11T05:44:16;49.75;;;24.73;;
55362;SDS011;41244;49.242;9.060;2024-01-11T05:46:41;46.38;;;25.58;;
55362;SDS011;41244;49.242;9.060;2024-01-11T05:49:07;49.00;;;25.48;;
55362;SDS011;41244;49.242;9.060;2024-01-11T05:51:33;41.97;;;24.63;;
55362;SDS011;41244;49.242;9.060;2024-01-11T05:53:59;46.78;;;25.70;;
55362;SDS011;41244;49.242;9.060;2024-01-11T05:56:24;44.75;;;24.73;;
55362;SDS011;41244;49.242;9.060;2024-01-11T05:58:50;49.40;;;27.20;;
55362;SDS011;41244;49.242;9.060;2024-01-11T06:01:16;49.25;;;26.30;;
55362;SDS011;41244;49.242;9.060;2024-01-11T06:03:42;45.28;;;25.05;;
55362;SDS011;41244;49.242;9.060;2024-01-11T06:06:08;46.53;;;26.23;;
55362;SDS011;41244;49.242;9.060;2024-01-11T06:08:33;48.13;;;27.05;;
55362;SDS011;41244;49.242;9.060;2024-01-11T06:10:59;43.80;;;25.73;;
55362;SDS011;41244;49.242;9.060;2024-01-11T06:13:25;42.17;;;23.77;;
55362;SDS011;41244;49.242;9.060;2024-01-11T06:15:51;45.67;;;25.15;;
55362;SDS011;41244;49.242;9.060;2024-01-11T06:18:17;43.35;;;24.23;;
55362;SDS011;41244;49.242;9.060;2024-01-11T06:20:42;47.47;;;26.40;;
55362;SDS011;41244;49.242;9.060;2024-01-11T06:23:08;44.80;;;25.83;;
55362;SDS011;41244;49.242;9.060;2024-01-11T06:25:34;45.65;;;24.83;;
55362;SDS011;41244;49.242;9.060;2024-01-11T06:28:02;43.05;;;25.33;;
55362;SDS011;41244;49.242;9.060;2024-01-11T06:30:29;49.13;;;26.67;;
55362;SDS011;41244;49.242;9.060;2024-01-11T06:32:54;43.88;;;25.30;;
55362;SDS011;41244;49.242;9.060;2024-01-11T06:35:20;45.40;;;25.98;;
55362;SDS011;41244;49.242;9.060;2024-01-11T06:37:46;46.50;;;25.55;;
55362;SDS011;41244;49.242;9.060;2024-01-11T06:40:11;43.00;;;24.80;;
55362;SDS011;41244;49.242;9.060;2024-01-11T06:42:37;44.33;;;24.88;;
55362;SDS011;41244;49.242;9.060;2024-01-11T06:45:03;48.95;;;26.25;;
55362;SDS011;41244;49.242;9.060;2024-01-11T06:47:29;44.10;;;25.48;;
55362;SDS011;41244;49.242;9.060;2024-01-11T06:49:55;48.97;;;26.67;;
55362;SDS011;41244;49.242;9.060;2024-01-11T06:52:21;46.63;;;25.23;;
55362;SDS011;41244;49.242;9.060;2024-01-11T06:54:46;43.70;;;25.02;;
55362;SDS011;41244;49.242;9.060;2024-01-11T06:57:12;45.75;;;26.80;;
55362;SDS011;41244;49.242;9.060;2024-01-11T06:59:38;49.47;;;26.17;;
55362;SDS011;41244;49.242;9.060;2024-01-11T07:02:04;49.70;;;24.63;;
55362;SDS011;41244;49.242;9.060;2024-01-11T07:04:30;45.80;;;25.48;;
55362;SDS011;41244;49.242;9.060;2024-01-11T07:06:55;49.40;;;25.65;;
55362;SDS011;41244;49.242;9.060;2024-01-11T07:09:21;48.80;;;25.60;;
55362;SDS011;41244;49.242;9.060;2024-01-11T07:11:47;42.95;;;24.70;;
55362;SDS011;41244;49.242;9.060;2024-01-11T07:14:12;44.83;;;25.17;;
55362;SDS011;41244;49.242;9.060;2024-01-11T07:16:38;50.15;;;26.85;;
55362;SDS011;41244;49.242;9.060;2024-01-11T07:19:04;46.83;;;25.58;;
55362;SDS011;41244;49.242;9.060;2024-01-11T07:21:30;45.92;;;26.08;;
55362;SDS011;41244;49.242;9.060;2024-01-11T07:23:57;44.40;;;25.13;;
55362;SDS011;41244;49.242;9.060;2024-01-11T07:26:25;46.20;;;24.90;;
55362;SDS011;41244;49.242;9.060;2024-01-11T07:28:51;48.40;;;26.38;;
55362;SDS011;41244;49.242;9.060;2024-01-11T07:31:19;52.05;;;26.55;;
55362;SDS011;41244;49.242;9.060;2024-01-11T07:33:45;47.80;;;25.95;;
55362;SDS011;41244;49.242;9.060;2024-01-11T07:36:11;50.05;;;27.40;;
55362;SDS011;41244;49.242;9.060;2024-01-11T07:38:37;45.90;;;25.08;;
55362;SDS011;41244;49.242;9.060;2024-01-11T07:41:03;48.80;;;26.13;;
55362;SDS011;41244;49.242;9.060;2024-01-11T07:43:29;41.97;;;23.17;;
55362;SDS011;41244;49.242;9.060;2024-01-11T07:45:56;45.00;;;25.13;;
55362;SDS011;41244;49.242;9.060;2024-01-11T07:48:22;44.10;;;25.83;;
55362;SDS011;41244;49.242;9.060;2024-01-11T07:50:48;46.78;;;25.38;;
55362;SDS011;41244;49.242;9.060;2024-01-11T07:53:14;48.42;;;26.20;;
55362;SDS011;41244;49.242;9.060;2024-01-11T07:55:40;45.83;;;25.35;;
55362;SDS011;41244;49.242;9.060;2024-01-11T07:58:06;44.58;;;23.83;;
55362;SDS011;41244;49.242;9.060;2024-01-11T08:00:32;47.38;;;24.65;;
55362;SDS011;41244;49.242;9.060;2024-01-11T08:02:58;45.65;;;24.52;;
55362;SDS011;41244;49.242;9.060;2024-01-11T08:05:25;43.97;;;24.17;;
55362;SDS011;41244;49.242;9.060;2024-01-11T08:07:51;48.10;;;26.35;;
55362;SDS011;41244;49.242;9.060;2024-01-11T08:10:16;43.00;;;23.80;;
55362;SDS011;41244;49.242;9.060;2024-01-11T08:12:42;46.80;;;24.33;;
55362;SDS011;41244;49.242;9.060;2024-01-11T08:15:08;42.90;;;24.73;;
55362;SDS011;41244;49.242;9.060;2024-01-11T08:17:37;39.20;;;24.00;;
55362;SDS011;41244;49.242;9.060;2024-01-11T08:20:04;46.25;;;24.58;;
55362;SDS011;41244;49.242;9.060;2024-01-11T08:22:33;48.25;;;24.58;;
55362;SDS011;41244;49.242;9.060;2024-01-11T08:25:01;46.33;;;23.88;;
55362;SDS011;41244;49.242;9.060;2024-01-11T08:27:29;40.97;;;23.77;;
55362;SDS011;41244;49.242;9.060;2024-01-11T08:29:56;40.58;;;23.73;;
55362;SDS011;41244;49.242;9.060;2024-01-11T08:32:22;43.65;;;24.70;;
55362;SDS011;41244;49.242;9.060;2024-01-11T08:34:48;40.38;;;24.67;;
55362;SDS011;41244;49.242;9.060;2024-01-11T08:37:14;43.42;;;23.95;;
55362;SDS011;41244;49.242;9.060;2024-01-11T08:39:40;45.65;;;25.23;;
55362;SDS011;41244;49.242;9.060;2024-01-11T08:42:06;43.58;;;24.98;;
55362;SDS011;41244;49.242;9.060;2024-01-11T08:44:32;41.42;;;22.45;;
55362;SDS011;41244;49.242;9.060;2024-01-11T08:46:58;48.58;;;24.67;;
55362;SDS011;41244;49.242;9.060;2024-01-11T08:49:24;42.67;;;23.70;;
55362;SDS011;41244;49.242;9.060;2024-01-11T08:51:50;43.58;;;24.45;;
55362;SDS011;41244;49.242;9.060;2024-01-11T08:54:16;40.42;;;23.17;;
55362;SDS011;41244;49.242;9.060;2024-01-11T08:56:45;44.40;;;24.45;;
55362;SDS011;41244;49.242;9.060;2024-01-11T08:59:12;41.58;;;24.63;;
55362;SDS011;41244;49.242;9.060;2024-01-11T09:01:38;40.10;;;23.85;;
55362;SDS011;41244;49.242;9.060;2024-01-11T09:04:04;44.63;;;24.92;;
55362;SDS011;41244;49.242;9.060;2024-01-11T09:06:30;43.30;;;25.10;;
55362;SDS011;41244;49.242;9.060;2024-01-11T09:08:57;38.35;;;24.85;;
55362;SDS011;41244;49.242;9.060;2024-01-11T09:11:23;45.22;;;25.13;;
55362;SDS011;41244;49.242;9.060;2024-01-11T09:13:49;42.60;;;23.67;;
55362;SDS011;41244;49.242;9.060;2024-01-11T09:16:16;43.00;;;25.15;;
55362;SDS011;41244;49.242;9.060;2024-01-11T09:18:42;42.20;;;23.25;;
55362;SDS011;41244;49.242;9.060;2024-01-11T09:21:09;40.75;;;25.20;;
55362;SDS011;41244;49.242;9.060;2024-01-11T09:23:35;41.83;;;24.42;;
55362;SDS011;41244;49.242;9.060;2024-01-11T09:26:01;52.80;;;27.63;;
55362;SDS011;41244;49.242;9.060;2024-01-11T09:28:27;42.28;;;25.00;;
55362;SDS011;41244;49.242;9.060;2024-01-11T09:30:53;41.85;;;24.48;;
55362;SDS011;41244;49.242;9.060;2024-01-11T09:33:24;48.28;;;25.63;;
55362;SDS011;41244;49.242;9.060;2024-01-11T09:35:51;43.17;;;24.40;;
55362;SDS011;41244;49.242;9.060;2024-01-11T09:38:17;39.22;;;23.45;;
55362;SDS011;41244;49.242;9.060;2024-01-11T09:40:43;46.60;;;25.58;;
55362;SDS011;41244;49.242;9.060;2024-01-11T09:43:08;39.50;;;23.60;;
55362;SDS011;41244;49.242;9.060;2024-01-11T09:45:34;39.75;;;24.23;;
55362;SDS011;41244;49.242;9.060;2024-01-11T09:48:03;48.17;;;25.17;;
55362;SDS011;41244;49.242;9.060;2024-01-11T09:50:31;43.97;;;25.35;;
55362;SDS011;41244;49.242;9.060;2024-01-11T09:52:57;40.70;;;23.25;;
55362;SDS011;41244;49.242;9.060;2024-01-11T09:55:23;44.33;;;25.40;;
55362;SDS011;41244;49.242;9.060;2024-01-11T09:57:50;39.22;;;24.10;;
55362;SDS011;41244;49.242;9.060;2024-01-11T10:00:18;48.45;;;25.50;;
55362;SDS011;41244;49.242;9.060;2024-01-11T10:02:47;40.53;;;25.02;;
55362;SDS011;41244;49.242;9.060;2024-01-11T10:05:13;42.80;;;23.85;;
55362;SDS011;41244;49.242;9.060;2024-01-11T10:07:39;42.13;;;24.83;;
55362;SDS011;41244;49.242;9.060;2024-01-11T10:10:06;43.47;;;25.40;;
55362;SDS011;41244;49.242;9.060;2024-01-11T10:12:36;42.42;;;24.95;;
55362;SDS011;41244;49.242;9.060;2024-01-11T10:15:09;41.35;;;25.13;;
55362;SDS011;41244;49.242;9.060;2024-01-11T10:17:42;42.75;;;23.05;;
55362;SDS011;41244;49.242;9.060;2024-01-11T10:20:09;37.90;;;23.40;;
55362;SDS011;41244;49.242;9.060;2024-01-11T10:22:38;42.53;;;23.23;;
55362;SDS011;41244;49.242;9.060;2024-01-11T10:25:12;49.92;;;25.67;;
55362;SDS011;41244;49.242;9.060;2024-01-11T10:27:40;43.30;;;24.50;;
55362;SDS011;41244;49.242;9.060;2024-01-11T10:30:08;40.58;;;23.98;;
55362;SDS011;41244;49.242;9.060;2024-01-11T10:32:38;41.67;;;23.90;;
55362;SDS011;41244;49.242;9.060;2024-01-11T10:35:04;41.50;;;25.55;;
55362;SDS011;41244;49.242;9.060;2024-01-11T10:37:31;42.53;;;25.65;;
55362;SDS011;41244;49.242;9.060;2024-01-11T10:39:58;41.88;;;24.48;;
55362;SDS011;41244;49.242;9.060;2024-01-11T10:42:33;40.78;;;24.45;;
55362;SDS011;41244;49.242;9.060;2024-01-11T10:45:02;39.72;;;23.23;;
55362;SDS011;41244;49.242;9.060;2024-01-11T10:47:30;40.72;;;22.90;;
55362;SDS011;41244;49.242;9.060;2024-01-11T10:49:59;40.92;;;25.08;;
55362;SDS011;41244;49.242;9.060;2024-01-11T10:52:28;42.75;;;24.25;;
55362;SDS011;41244;49.242;9.060;2024-01-11T10:55:03;38.92;;;23.20;;
55362;SDS011;41244;49.242;9.060;2024-01-11T10:57:30;40.42;;;24.83;;
55362;SDS011;41244;49.242;9.060;2024-01-11T10:59:57;44.70;;;24.30;;
55362;SDS011;41244;49.242;9.060;2024-01-11T11:02:24;41.45;;;24.40;;
55362;SDS011;41244;49.242;9.060;2024-01-11T11:04:51;40.55;;;24.30;;
55362;SDS011;41244;49.242;9.060;2024-01-11T11:07:19;43.92;;;25.08;;
55362;SDS011;41244;49.242;9.060;2024-01-11T11:09:45;39.22;;;23.65;;
55362;SDS011;41244;49.242;9.060;2024-01-11T11:12:11;39.97;;;23.55;;
55362;SDS011;41244;49.242;9.060;2024-01-11T11:14:39;42.60;;;24.67;;
55362;SDS011;41244;49.242;9.060;2024-01-11T11:17:05;41.50;;;25.52;;
55362;SDS011;41244;49.242;9.060;2024-01-11T11:19:31;37.25;;;23.85;;
55362;SDS011;41244;49.242;9.060;2024-01-11T11:21:57;38.25;;;23.65;;
55362;SDS011;41244;49.242;9.060;2024-01-11T11:24:23;39.67;;;23.98;;
55362;SDS011;41244;49.242;9.060;2024-01-11T11:26:48;36.47;;;23.35;;
55362;SDS011;41244;49.242;9.060;2024-01-11T11:29:14;40.13;;;24.75;;
55362;SDS011;41244;49.242;9.060;2024-01-11T11:31:42;39.28;;;22.92;;
55362;SDS011;41244;49.242;9.060;2024-01-11T11:34:18;35.72;;;22.08;;
55362;SDS011;41244;49.242;9.060;2024-01-11T11:36:48;38.90;;;23.67;;
55362;SDS011;41244;49.242;9.060;2024-01-11T11:39:19;39.13;;;21.75;;
55362;SDS011;41244;49.242;9.060;2024-01-11T11:41:47;39.05;;;22.42;;
55362;SDS011;41244;49.242;9.060;2024-01-11T11:44:14;37.38;;;22.90;;
55362;SDS011;41244;49.242;9.060;2024-01-11T11:46:41;38.22;;;22.73;;
55362;SDS011;41244;49.242;9.060;2024-01-11T11:49:08;36.92;;;23.98;;
55362;SDS011;41244;49.242;9.060;2024-01-11T11:51:35;37.53;;;23.20;;
55362;SDS011;41244;49.242;9.060;2024-01-11T11:54:05;37.63;;;23.73;;
55362;SDS011;41244;49.242;9.060;2024-01-11T11:56:31;37.80;;;22.70;;
55362;SDS011;41244;49.242;9.060;2024-01-11T11:58:57;39.03;;;23.08;;
55362;SDS011;41244;49.242;9.060;2024-01-11T12:01:23;37.15;;;23.63;;
55362;SDS011;41244;49.242;9.060;2024-01-11T12:03:49;35.47;;;22.35;;
55362;SDS011;41244;49.242;9.060;2024-01-11T12:06:18;37.60;;;21.52;;
55362;SDS011;41244;49.242;9.060;2024-01-11T12:08:48;35.70;;;21.98;;
55362;SDS011;41244;49.242;9.060;2024-01-11T12:11:14;40.25;;;23.00;;
55362;SDS011;41244;49.242;9.060;2024-01-11T12:13:45;38.05;;;22.88;;
55362;SDS011;41244;49.242;9.060;2024-01-11T12:16:12;35.33;;;22.33;;
55362;SDS011;41244;49.242;9.060;2024-01-11T12:18:38;37.65;;;23.30;;
55362;SDS011;41244;49.242;9.060;2024-01-11T12:21:06;35.90;;;23.35;;
55362;SDS011;41244;49.242;9.060;2024-01-11T12:23:33;37.63;;;23.38;;
55362;SDS011;41244;49.242;9.060;2024-01-11T12:26:03;33.55;;;22.50;;
55362;SDS011;41244;49.242;9.060;2024-01-11T12:28:31;36.80;;;22.50;;
55362;SDS011;41244;49.242;9.060;2024-01-11T12:30:57;34.85;;;21.50;;
55362;SDS011;41244;49.242;9.060;2024-01-11T12:33:23;35.80;;;22.90;;
55362;SDS011;41244;49.242;9.060;2024-01-11T12:35:51;37.60;;;23.27;;
55362;SDS011;41244;49.242;9.060;2024-01-11T12:38:17;37.25;;;22.60;;
55362;SDS011;41244;49.242;9.060;2024-01-11T12:40:43;65.45;;;30.83;;
55362;SDS011;41244;49.242;9.060;2024-01-11T12:43:11;47.30;;;26.60;;
55362;SDS011;41244;49.242;9.060;2024-01-11T12:45:37;37.58;;;22.92;;
55362;SDS011;41244;49.242;9.060;2024-01-11T12:48:06;37.33;;;22.88;;
55362;SDS011;41244;49.242;9.060;2024-01-11T12:50:33;36.65;;;22.83;;
55362;SDS011;41244;49.242;9.060;2024-01-11T12:53:10;37.55;;;22.20;;
55362;SDS011;41244;49.242;9.060;2024-01-11T12:55:42;34.97;;;22.33;;
55362;SDS011;41244;49.242;9.060;2024-01-11T12:58:12;38.60;;;21.90;;
55362;SDS011;41244;49.242;9.060;2024-01-11T13:00:39;33.58;;;21.92;;
55362;SDS011;41244;49.242;9.060;2024-01-11T13:03:05;37.70;;;22.77;;
55362;SDS011;41244;49.242;9.060;2024-01-11T13:05:31;35.58;;;21.63;;
55362;SDS011;41244;49.242;9.060;2024-01-11T13:08:03;36.00;;;23.45;;
55362;SDS011;41244;49.242;9.060;2024-01-11T13:10:34;36.92;;;22.40;;
55362;SDS011;41244;49.242;9.060;2024-01-11T13:13:01;30.45;;;21.10;;
55362;SDS011;41244;49.242;9.060;2024-01-11T13:15:27;37.65;;;22.40;;
55362;SDS011;41244;49.242;9.060;2024-01-11T13:17:56;49.67;;;26.85;;
55362;SDS011;41244;49.242;9.060;2024-01-11T13:20:23;43.13;;;24.50;;
55362;SDS011;41244;49.242;9.060;2024-01-11T13:25:41;33.45;;;20.65;;
55362;SDS011;41244;49.242;9.060;2024-01-11T13:28:08;33.25;;;20.45;;
55362;SDS011;41244;49.242;9.060;2024-01-11T13:30:37;33.45;;;19.70;;
55362;SDS011;41244;49.242;9.060;2024-01-11T13:33:07;32.40;;;20.33;;
55362;SDS011;41244;49.242;9.060;2024-01-11T13:35:34;33.75;;;20.95;;
55362;SDS011;41244;49.242;9.060;2024-01-11T13:38:01;31.85;;;19.83;;
55362;SDS011;41244;49.242;9.060;2024-01-11T13:40:28;31.90;;;21.17;;
55362;SDS011;41244;49.242;9.060;2024-01-11T13:42:56;32.20;;;20.90;;
55362;SDS011;41244;49.242;9.060;2024-01-11T13:45:22;31.80;;;20.35;;
55362;SDS011;41244;49.242;9.060;2024-01-11T13:47:48;35.15;;;20.73;;
55362;SDS011;41244;49.242;9.060;2024-01-11T13:50:15;32.22;;;19.63;;
55362;SDS011;41244;49.242;9.060;2024-01-11T13:52:41;31.67;;;18.92;;
55362;SDS011;41244;49.242;9.060;2024-01-11T13:55:09;32.67;;;20.27;;
55362;SDS011;41244;49.242;9.060;2024-01-11T13:57:36;32.40;;;21.55;;
55362;SDS011;41244;49.242;9.060;2024-01-11T14:00:03;34.08;;;19.65;;
55362;SDS011;41244;49.242;9.060;2024-01-11T14:02:30;30.95;;;20.52;;
55362;SDS011;41244;49.242;9.060;2024-01-11T14:04:56;31.42;;;20.77;;
55362;SDS011;41244;49.242;9.060;2024-01-11T14:07:23;30.13;;;19.00;;
55362;SDS011;41244;49.242;9.060;2024-01-11T14:09:49;28.08;;;18.15;;
55362;SDS011;41244;49.242;9.060;2024-01-11T14:12:15;27.38;;;17.70;;
55362;SDS011;41244;49.242;9.060;2024-01-11T14:14:41;28.15;;;17.83;;
55362;SDS011;41244;49.242;9.060;2024-01-11T14:17:08;29.23;;;18.20;;
55362;SDS011;41244;49.242;9.060;2024-01-11T14:19:34;27.52;;;17.92;;
55362;SDS011;41244;49.242;9.060;2024-01-11T14:22:00;31.58;;;20.20;;